Time;durP1;ratioP1;P1;durP2;ratioP2;P2;SDS_P1;SDS_P2;PMS_P1;PMS_P2;Temp;Humidity;BMP_temperature;BMP_pressure;BME280_temperature;BME280_humidity;BME280_pressure;Samples;Min_cycle;Max_cycle;Signal;HPM_P1;HPM_P2
2022/01/10 00:02:07;;;;;;;8.48;5.62;;;;;;;4.00;100.00;100148.41;1609505;88;21102;-59
2022/01/10 00:04:36;;;;;;;8.98;6.17;;;;;;;3.97;100.00;100146.78;1608737;89;21166;-59
2022/01/10 00:07:04;;;;;;;8.63;6.08;;;;;;;3.97;100.00;100144.64;1608833;89;21571;-59
2022/01/10 00:09:30;;;;;;;10.53;7.22;;;;;;;3.97;100.00;100148.47;1609476;88;21092;-59
2022/01/10 00:11:58;;;;;;;12.40;7.58;;;;;;;3.93;100.00;100140.50;1608797;89;21066;-59
2022/01/10 00:14:24;;;;;;;9.25;6.47;;;;;;;3.89;100.00;100132.08;1608724;89;21087;-59
2022/01/10 00:16:53;;;;;;;10.15;6.47;;;;;;;3.92;100.00;100137.56;1608888;89;21043;-59
2022/01/10 00:19:20;;;;;;;11.08;6.17;;;;;;;3.92;100.00;100132.47;1608681;89;21129;-59
2022/01/10 00:21:49;;;;;;;10.23;5.70;;;;;;;3.86;100.00;100124.97;1608909;89;21047;-59
2022/01/10 00:24:16;;;;;;;8.13;5.70;;;;;;;3.83;100.00;100125.02;1608504;89;21019;-59
2022/01/10 00:26:43;;;;;;;11.18;6.33;;;;;;;3.79;100.00;100128.06;1608864;89;21063;-58
2022/01/10 00:29:10;;;;;;;10.70;6.15;;;;;;;3.81;100.00;100139.05;1615534;87;21082;-59
2022/01/10 00:31:37;;;;;;;9.20;6.00;;;;;;;3.83;100.00;100135.21;1608972;89;21043;-58
2022/01/10 00:34:04;;;;;;;9.00;6.45;;;;;;;3.83;100.00;100122.03;1608801;89;21113;-59
2022/01/10 00:36:31;;;;;;;12.68;7.35;;;;;;;3.84;100.00;100125.44;1608904;89;21078;-59
2022/01/10 00:38:59;;;;;;;12.80;6.62;;;;;;;3.85;100.00;100120.73;1608706;89;21106;-59
2022/01/10 00:41:26;;;;;;;14.18;7.80;;;;;;;3.86;100.00;100115.62;1608927;89;21050;-59
2022/01/10 00:43:53;;;;;;;10.80;7.15;;;;;;;3.88;100.00;100121.95;1608895;89;21035;-59
2022/01/10 00:46:21;;;;;;;13.15;6.70;;;;;;;3.84;100.00;100117.36;1615465;87;21111;-59
2022/01/10 00:48:50;;;;;;;13.75;7.10;;;;;;;3.86;100.00;100118.60;1615330;87;21102;-59
2022/01/10 00:51:17;;;;;;;11.20;7.60;;;;;;;3.86;100.00;100109.25;1609379;87;21606;-59
2022/01/10 00:53:44;;;;;;;11.43;7.28;;;;;;;3.88;100.00;100104.13;1608816;88;21146;-59
2022/01/10 00:56:11;;;;;;;10.48;7.50;;;;;;;3.92;100.00;100107.00;1608787;89;21031;-59
2022/01/10 00:58:38;;;;;;;15.00;7.33;;;;;;;3.90;100.00;100112.13;1609031;89;21134;-59
2022/01/10 01:01:05;;;;;;;7.95;6.28;;;;;;;3.91;100.00;100114.23;1609004;89;21063;-59
2022/01/10 01:03:33;;;;;;;10.20;6.37;;;;;;;3.92;100.00;100114.20;1614616;88;21066;-59
2022/01/10 01:06:01;;;;;;;9.38;6.35;;;;;;;3.85;100.00;100111.37;1609323;89;21054;-59
2022/01/10 01:08:32;;;;;;;8.90;5.83;;;;;;;3.81;100.00;100111.91;1609205;89;21043;-59
2022/01/10 01:13:40;;;;;;;11.43;6.92;;;;;;;3.79;100.00;100102.61;1609266;88;21024;-58
2022/01/10 01:24:07;;;;;;;11.30;7.20;;;;;;;3.82;100.00;100107.64;1608917;89;21051;-58
2022/01/10 01:26:39;;;;;;;10.35;7.85;;;;;;;3.77;100.00;100103.94;1610358;87;21531;-59
2022/01/10 01:29:09;;;;;;;14.35;8.73;;;;;;;3.85;100.00;100102.47;1608976;89;21063;-59
2022/01/10 01:31:37;;;;;;;10.30;7.47;;;;;;;3.85;100.00;100096.10;1608980;89;21573;-58
2022/01/10 01:34:05;;;;;;;11.55;8.05;;;;;;;3.85;100.00;100092.73;1610913;88;21093;-59
2022/01/10 01:36:34;;;;;;;9.65;6.80;;;;;;;3.84;100.00;100098.27;1617412;87;21079;-59
2022/01/10 01:39:10;;;;;;;10.10;6.83;;;;;;;3.77;100.00;100094.17;1625077;88;21078;-59
2022/01/10 01:44:01;;;;;;;13.28;7.33;;;;;;;3.79;100.00;100100.92;1615313;87;21110;-59
2022/01/10 01:46:30;;;;;;;15.28;7.80;;;;;;;3.83;100.00;100103.38;1611977;87;21066;-59
2022/01/10 01:48:57;;;;;;;10.63;6.78;;;;;;;3.85;100.00;100099.09;1608900;87;21059;-59
2022/01/10 01:51:26;;;;;;;11.40;7.40;;;;;;;3.79;100.00;100095.83;1633793;88;21072;-59
2022/01/10 01:53:53;;;;;;;9.85;6.58;;;;;;;3.79;100.00;100099.66;1617692;86;21136;-58
2022/01/10 01:56:22;;;;;;;9.98;6.92;;;;;;;3.84;100.00;100098.27;1609037;89;21142;-59
2022/01/10 01:58:54;;;;;;;11.28;7.20;;;;;;;3.86;100.00;100103.33;1609070;89;21403;-58
2022/01/10 02:01:25;;;;;;;12.90;6.90;;;;;;;3.88;100.00;100094.77;1608977;89;21079;-59
2022/01/10 02:03:52;;;;;;;11.25;6.97;;;;;;;3.80;100.00;100098.77;1625304;88;21105;-59
2022/01/10 02:06:21;;;;;;;17.37;7.97;;;;;;;3.81;100.00;100092.81;1609209;87;21067;-59
2022/01/10 02:08:49;;;;;;;13.75;8.43;;;;;;;3.81;100.00;100097.91;1609072;88;21534;-58
2022/01/10 02:11:19;;;;;;;16.62;9.83;;;;;;;3.83;100.00;100097.84;1608687;89;21059;-59
2022/01/10 02:13:46;;;;;;;15.08;8.80;;;;;;;3.82;100.00;100102.55;1609023;89;21119;-59
2022/01/10 02:16:22;;;;;;;13.28;8.03;;;;;;;3.81;100.00;100093.23;1608199;89;21083;-59
2022/01/10 02:18:49;;;;;;;12.63;7.47;;;;;;;3.80;100.00;100091.13;1609009;88;21079;-59
2022/01/10 02:21:17;;;;;;;12.33;7.17;;;;;;;3.76;100.00;100081.05;1608939;89;21063;-59
2022/01/10 02:23:45;;;;;;;20.68;9.40;;;;;;;3.83;100.00;100079.20;1616070;88;21085;-59
2022/01/10 02:26:17;;;;;;;18.35;8.65;;;;;;;3.78;100.00;100069.95;1608968;88;21071;-59
2022/01/10 02:28:44;;;;;;;15.80;8.10;;;;;;;3.76;100.00;100070.42;1615573;88;21098;-59
2022/01/10 02:31:14;;;;;;;12.80;7.90;;;;;;;3.74;100.00;100070.07;1608825;89;21130;-59
2022/01/10 02:33:41;;;;;;;14.93;7.92;;;;;;;3.75;100.00;100073.86;1608974;88;21626;-59
2022/01/10 02:38:35;;;;;;;20.40;8.93;;;;;;;3.80;100.00;100074.58;1609060;88;21059;-60
2022/01/10 02:41:04;;;;;;;19.73;9.55;;;;;;;3.79;100.00;100075.46;1609058;88;21046;-59
2022/01/10 02:43:31;;;;;;;16.73;9.28;;;;;;;3.79;100.00;100079.70;1608635;88;21547;-59
2022/01/10 02:45:58;;;;;;;23.92;11.28;;;;;;;3.79;100.00;100083.52;1608871;89;21583;-58
2022/01/10 02:48:25;;;;;;;21.25;9.75;;;;;;;3.75;100.00;100080.64;1608963;89;21074;-59
2022/01/10 02:50:52;;;;;;;15.95;9.45;;;;;;;3.77;100.00;100077.20;1609108;89;21038;-59
2022/01/10 02:53:19;;;;;;;13.88;8.35;;;;;;;3.80;100.00;100080.11;1608742;88;21155;-60
2022/01/10 02:55:46;;;;;;;16.00;10.55;;;;;;;3.77;100.00;100081.44;1609658;88;21007;-59
2022/01/10 02:58:13;;;;;;;18.12;9.80;;;;;;;3.74;100.00;100077.27;1608784;89;21067;-59
2022/01/10 03:00:41;;;;;;;20.10;11.43;;;;;;;3.73;100.00;100077.30;1609125;88;21047;-59
2022/01/10 03:03:08;;;;;;;17.00;10.10;;;;;;;3.72;100.00;100080.28;1609526;88;21063;-59
2022/01/10 03:05:35;;;;;;;18.20;9.65;;;;;;;3.70;100.00;100089.66;1609029;89;21074;-59
2022/01/10 03:08:04;;;;;;;26.65;10.43;;;;;;;3.75;100.00;100104.41;1608833;89;21111;-59
2022/01/10 03:10:32;;;;;;;20.32;9.95;;;;;;;3.78;100.00;100108.59;1608952;89;21063;-59
2022/01/10 03:13:01;;;;;;;21.27;9.70;;;;;;;3.80;100.00;100106.84;1609009;89;21015;-59
2022/01/10 03:15:29;;;;;;;18.20;9.48;;;;;;;3.83;100.00;100109.30;1609104;89;21098;-58
2022/01/10 03:17:56;;;;;;;16.02;9.25;;;;;;;3.85;100.00;100105.02;1608953;89;21080;-60
2022/01/10 03:20:23;;;;;;;18.02;9.23;;;;;;;3.91;100.00;100109.97;1609243;89;21560;-59
2022/01/10 03:22:53;;;;;;;20.23;10.53;;;;;;;3.94;100.00;100124.36;1608679;89;21102;-59
2022/01/10 03:25:20;;;;;;;19.12;10.78;;;;;;;3.94;100.00;100124.36;1608935;89;21050;-59
2022/01/10 03:27:48;;;;;;;19.73;10.55;;;;;;;3.93;100.00;100125.22;1608769;89;21066;-60
2022/01/10 03:30:16;;;;;;;18.45;9.38;;;;;;;3.84;100.00;100126.27;1608921;88;21086;-59
2022/01/10 03:32:46;;;;;;;18.15;8.98;;;;;;;3.86;100.00;100128.34;1608800;89;21035;-59
2022/01/10 03:35:26;;;;;;;16.67;9.10;;;;;;;3.84;100.00;100126.72;1608606;88;21539;-59
2022/01/10 03:37:53;;;;;;;18.02;9.03;;;;;;;3.83;100.00;100128.40;1608810;89;21071;-59
2022/01/10 03:40:21;;;;;;;15.58;8.50;;;;;;;3.83;100.00;100128.84;1608980;89;21042;-59
2022/01/10 03:42:49;;;;;;;14.80;8.10;;;;;;;3.86;100.00;100129.62;1608783;89;21066;-59
2022/01/10 03:45:16;;;;;;;15.53;8.45;;;;;;;3.88;100.00;100136.78;1609059;89;21523;-58
2022/01/10 03:47:43;;;;;;;14.85;8.50;;;;;;;3.90;100.00;100132.50;1609013;89;21095;-59
2022/01/10 03:50:11;;;;;;;17.75;8.28;;;;;;;3.86;100.00;100133.44;1618980;87;21594;-59
2022/01/10 03:52:38;;;;;;;13.75;8.18;;;;;;;3.81;100.00;100136.09;1609911;87;21090;-59
2022/01/10 03:55:06;;;;;;;20.02;8.95;;;;;;;3.83;100.00;100139.03;1608981;88;21547;-58
2022/01/10 03:57:33;;;;;;;13.45;7.90;;;;;;;3.84;100.00;100136.90;1609125;89;21031;-59
2022/01/10 04:00:00;;;;;;;16.30;8.65;;;;;;;3.80;100.00;100144.59;1610182;88;21031;-59
2022/01/10 04:02:30;;;;;;;22.13;10.28;;;;;;;3.80;100.00;100143.31;1614253;89;20995;-59
2022/01/10 04:04:55;;;;;;;26.15;10.40;;;;;;;3.78;100.00;100145.06;1609211;88;21058;-58
2022/01/10 04:07:23;;;;;;;25.97;9.60;;;;;;;3.78;100.00;100150.15;1609014;89;21133;-59
2022/01/10 04:09:50;;;;;;;19.17;8.98;;;;;;;3.78;100.00;100149.32;1609134;88;21144;-59
2022/01/10 04:12:17;;;;;;;18.75;9.45;;;;;;;3.78;100.00;100153.97;1610477;87;21103;-58
2022/01/10 04:14:46;;;;;;;26.10;9.73;;;;;;;3.78;100.00;100154.41;1610798;89;21595;-59
2022/01/10 04:17:13;;;;;;;16.32;9.30;;;;;;;3.78;100.00;100153.97;1611006;88;21074;-59
2022/01/10 04:19:40;;;;;;;16.25;9.15;;;;;;;3.78;100.00;100145.50;1609364;88;21082;-59
2022/01/10 04:22:07;;;;;;;24.45;9.05;;;;;;;3.79;100.00;100155.66;1609126;88;21067;-59
2022/01/10 04:24:35;;;;;;;21.57;9.83;;;;;;;3.81;100.00;100155.19;1608662;89;21035;-59
2022/01/10 04:27:03;;;;;;;28.83;13.68;;;;;;;3.81;100.00;100145.01;1609168;88;21067;-60
2022/01/10 04:29:32;;;;;;;31.10;14.23;;;;;;;3.80;100.00;100157.31;1609821;88;21074;-59
2022/01/10 04:32:00;;;;;;;29.87;12.55;;;;;;;3.80;100.00;100150.13;1609575;87;21035;-59
2022/01/10 04:34:27;;;;;;;23.98;10.63;;;;;;;3.78;100.00;100156.96;1609027;88;21078;-59
2022/01/10 04:36:54;;;;;;;21.33;9.58;;;;;;;3.73;100.00;100151.98;1609093;88;21547;-59
2022/01/10 04:39:21;;;;;;;22.30;9.68;;;;;;;3.71;100.00;100157.53;1614121;89;21066;-59
2022/01/10 04:41:48;;;;;;;20.92;9.53;;;;;;;3.72;100.00;100147.73;1609366;89;21583;-59
2022/01/10 04:44:16;;;;;;;17.95;9.55;;;;;;;3.72;100.00;100145.20;1610039;88;21523;-59
2022/01/10 04:46:43;;;;;;;24.18;10.25;;;;;;;3.72;100.00;100152.00;1609067;89;21055;-60
2022/01/10 04:49:19;;;;;;;25.08;11.40;;;;;;;3.69;100.00;100156.73;1608842;89;21094;-59
2022/01/10 04:51:39;;;;;;;29.50;12.03;;;;;;;3.71;100.00;100157.53;1608870;88;21071;-59
2022/01/10 04:54:06;;;;;;;23.60;11.40;;;;;;;3.73;100.00;100162.16;1608742;88;21106;-59
2022/01/10 04:56:34;;;;;;;24.95;10.85;;;;;;;3.73;100.00;100162.16;1608942;89;21575;-59
2022/01/10 04:59:01;;;;;;;31.07;13.13;;;;;;;3.71;100.00;100166.86;1609003;87;21182;-59
2022/01/10 05:01:28;;;;;;;22.98;10.72;;;;;;;3.73;100.00;100165.12;1608886;89;21074;-59
2022/01/10 05:03:57;;;;;;;20.50;10.23;;;;;;;3.74;100.00;100165.09;1609225;88;21106;-59
2022/01/10 05:06:24;;;;;;;25.90;12.47;;;;;;;3.71;100.00;100163.90;1608852;89;21094;-59
2022/01/10 05:08:51;;;;;;;28.87;12.63;;;;;;;3.73;100.00;100163.84;1608915;89;21083;-59
2022/01/10 05:11:20;;;;;;;27.42;11.97;;;;;;;3.74;100.00;100162.98;1607972;88;21074;-59
2022/01/10 05:13:48;;;;;;;28.30;11.30;;;;;;;3.74;100.00;100165.53;1608873;89;21098;-59
2022/01/10 05:16:16;;;;;;;25.32;10.78;;;;;;;3.73;100.00;100169.80;1609027;88;21697;-59
2022/01/10 05:18:43;;;;;;;39.00;13.93;;;;;;;3.77;100.00;100171.81;1608981;89;21061;-59
2022/01/10 05:21:12;;;;;;;28.00;12.28;;;;;;;3.72;100.00;100174.91;1609075;88;21047;-60
2022/01/10 05:23:39;;;;;;;21.68;11.53;;;;;;;3.67;100.00;100176.29;1609007;88;21062;-60
2022/01/10 05:26:06;;;;;;;23.42;11.80;;;;;;;3.70;100.00;100181.75;1608942;89;21122;-60
2022/01/10 05:28:34;;;;;;;25.82;11.57;;;;;;;3.73;100.00;100185.07;1608779;88;21531;-59
2022/01/10 05:31:02;;;;;;;32.15;11.83;;;;;;;3.75;100.00;100188.42;1608878;89;21082;-59
2022/01/10 05:33:31;;;;;;;25.50;11.88;;;;;;;3.76;100.00;100186.70;1609018;88;21071;-59
2022/01/10 05:35:59;;;;;;;25.43;10.90;;;;;;;3.77;100.00;100187.95;1608806;89;21656;-59
2022/01/10 05:38:26;;;;;;;26.93;11.00;;;;;;;3.78;100.00;100190.89;1609028;89;21536;-59
2022/01/10 05:40:53;;;;;;;24.63;10.75;;;;;;;3.79;100.00;100196.81;1608816;88;21047;-59
2022/01/10 05:43:20;;;;;;;21.65;9.68;;;;;;;3.78;100.00;100202.34;1608986;89;21121;-60
2022/01/10 05:45:48;;;;;;;22.82;10.55;;;;;;;3.81;100.00;100198.47;1615655;89;21055;-59
2022/01/10 05:48:21;;;;;;;25.92;10.78;;;;;;;3.81;100.00;100198.47;1609475;87;21078;-59
2022/01/10 05:50:44;;;;;;;22.80;10.88;;;;;;;3.79;100.00;100195.12;1618054;88;21036;-59
2022/01/10 05:53:13;;;;;;;21.70;11.12;;;;;;;3.81;100.00;100195.06;1608963;88;21165;-59
2022/01/10 05:55:40;;;;;;;24.77;11.60;;;;;;;3.80;100.00;100196.78;1609062;89;21069;-59
2022/01/10 05:58:09;;;;;;;22.32;11.08;;;;;;;3.82;100.00;100206.94;1609150;89;21038;-58
2022/01/10 06:00:39;;;;;;;23.40;11.35;;;;;;;3.84;100.00;100208.19;1609064;88;21031;-59
2022/01/10 06:03:06;;;;;;;26.95;11.60;;;;;;;3.85;100.00;100210.68;1608815;89;21063;-59
2022/01/10 06:05:35;;;;;;;23.57;11.73;;;;;;;3.86;100.00;100221.28;1608703;88;21027;-59
2022/01/10 06:08:06;;;;;;;26.35;11.65;;;;;;;3.83;100.00;100218.79;1609062;88;21124;-59
2022/01/10 06:10:36;;;;;;;24.57;11.70;;;;;;;3.87;100.00;100211.48;1609005;89;21075;-59
2022/01/10 06:13:24;;;;;;;28.02;12.80;;;;;;;3.88;100.00;100214.89;1608340;88;21067;-59
2022/01/10 06:15:54;;;;;;;27.25;12.00;;;;;;;3.88;100.00;100215.72;1609069;89;21051;-59
2022/01/10 06:18:21;;;;;;;25.62;11.93;;;;;;;3.89;100.00;100217.83;1608725;89;21559;-59
2022/01/10 06:20:49;;;;;;;28.12;12.33;;;;;;;3.86;100.00;100220.01;1609710;88;21110;-59
2022/01/10 06:23:16;;;;;;;23.22;10.90;;;;;;;3.85;100.00;100222.58;1609054;89;21575;-58
2022/01/10 06:25:44;;;;;;;30.17;12.18;;;;;;;3.88;100.00;100230.17;1609671;88;21051;-59
2022/01/10 06:28:11;;;;;;;28.98;11.60;;;;;;;3.88;100.00;100239.08;1593501;88;21000;-59
2022/01/10 06:30:38;;;;;;;25.48;12.63;;;;;;;3.89;100.00;100236.48;1626849;87;21011;-59
2022/01/10 06:33:05;;;;;;;30.57;13.75;;;;;;;3.87;100.00;100242.05;1630162;87;21521;-59
2022/01/10 06:35:34;;;;;;;35.92;12.85;;;;;;;3.90;100.00;100245.81;1630901;86;21058;-59
2022/01/10 06:38:02;;;;;;;30.17;11.38;;;;;;;3.95;100.00;100240.61;1630465;87;21060;-59
2022/01/10 06:40:29;;;;;;;33.42;12.05;;;;;;;3.99;100.00;100250.73;1629594;85;21051;-59
2022/01/10 06:42:57;;;;;;;34.58;11.35;;;;;;;4.10;100.00;100258.13;1615237;88;21504;-59
2022/01/10 06:45:26;;;;;;;32.90;11.40;;;;;;;4.14;100.00;100253.38;1628981;87;21064;-59
2022/01/10 06:47:53;;;;;;;40.30;12.60;;;;;;;4.19;100.00;100249.00;1630894;88;21030;-59
2022/01/10 06:50:21;;;;;;;35.10;12.25;;;;;;;4.27;100.00;100247.56;1629186;88;21048;-59
2022/01/10 06:52:50;;;;;;;39.33;12.53;;;;;;;4.31;100.00;100252.16;1629117;87;21121;-59
2022/01/10 06:55:17;;;;;;;42.33;13.03;;;;;;;4.33;100.00;100256.78;1627472;87;21024;-60
2022/01/10 06:57:44;;;;;;;41.40;13.53;;;;;;;4.38;100.00;100256.27;1625765;87;21103;-59
2022/01/10 07:00:13;;;;;;;40.05;13.00;;;;;;;4.42;100.00;100260.41;1629925;87;21104;-60
2022/01/10 07:02:43;;;;;;;43.80;13.45;;;;;;;4.43;100.00;100261.24;1627902;88;21039;-60
2022/01/10 07:05:11;;;;;;;36.42;13.28;;;;;;;4.48;100.00;100261.55;1629389;88;21040;-59
2022/01/10 07:07:38;;;;;;;41.83;13.58;;;;;;;4.54;100.00;100263.09;1625362;88;21027;-60
2022/01/10 07:10:08;;;;;;;34.50;12.40;;;;;;;4.54;100.00;100265.64;1628575;87;21023;-60
2022/01/10 07:12:35;;;;;;;38.58;12.37;;;;;;;4.56;100.00;100272.81;1621035;87;21531;-59
2022/01/10 07:15:06;;;;;;;35.33;12.33;;;;;;;4.56;100.00;100276.23;1624197;87;21469;-60
2022/01/10 07:17:33;;;;;;;42.85;14.13;;;;;;;4.55;100.00;100280.08;1623678;88;21022;-59
2022/01/10 07:20:01;;;;;;;39.25;13.90;;;;;;;4.57;100.00;100279.61;1628988;88;21023;-59
2022/01/10 07:22:30;;;;;;;39.75;14.53;;;;;;;4.56;100.00;100272.41;1629612;88;21039;-60
2022/01/10 07:24:57;;;;;;;43.85;15.05;;;;;;;4.55;100.00;100274.53;1629355;88;21040;-59
2022/01/10 07:27:24;;;;;;;41.50;14.07;;;;;;;4.58;100.00;100270.66;1628353;87;21054;-60
2022/01/10 07:29:51;;;;;;;41.02;14.33;;;;;;;4.67;100.00;100279.80;1628910;86;21056;-60
2022/01/10 07:32:19;;;;;;;49.53;17.17;;;;;;;4.73;100.00;100277.55;1627911;88;21047;-59
2022/01/10 07:34:46;;;;;;;41.50;18.02;;;;;;;4.80;100.00;100273.51;1629401;88;21509;-59
2022/01/10 07:37:16;;;;;;;41.65;15.90;;;;;;;4.84;100.00;100276.83;1629713;88;21020;-60
2022/01/10 07:39:42;;;;;;;43.95;15.45;;;;;;;4.78;100.00;100279.08;1628205;87;21041;-60
2022/01/10 07:42:09;;;;;;;36.05;14.10;;;;;;;4.70;100.00;100280.98;1625659;88;21048;-60
2022/01/10 07:44:38;;;;;;;44.23;15.68;;;;;;;4.71;100.00;100281.84;1624072;88;21068;-60
2022/01/10 07:47:05;;;;;;;43.10;15.83;;;;;;;4.77;100.00;100274.05;1626818;87;21003;-60
2022/01/10 07:49:33;;;;;;;49.53;20.80;;;;;;;4.87;100.00;100274.22;1628585;88;21523;-60
2022/01/10 07:52:00;;;;;;;40.03;15.53;;;;;;;4.96;100.00;100275.70;1629472;88;21046;-59
2022/01/10 07:54:28;;;;;;;42.17;15.00;;;;;;;4.95;100.00;100275.31;1625766;88;21123;-60
2022/01/10 07:56:58;;;;;;;51.33;19.23;;;;;;;4.95;100.00;100276.14;1604855;88;21131;-59
2022/01/10 07:59:25;;;;;;;47.83;20.37;;;;;;;4.94;100.00;100273.63;1624124;88;21102;-60
2022/01/10 08:01:53;;;;;;;49.95;23.32;;;;;;;5.01;100.00;100268.78;1624503;88;21103;-60
2022/01/10 08:04:19;;;;;;;54.05;21.35;;;;;;;5.07;100.00;100278.84;1624578;88;21048;-60
2022/01/10 08:06:48;;;;;;;49.75;19.37;;;;;;;5.07;100.00;100274.15;1624598;88;21036;-60
2022/01/10 08:09:15;;;;;;;44.98;17.85;;;;;;;5.14;100.00;100276.95;1625935;88;21556;-60
2022/01/10 08:11:41;;;;;;;45.00;17.25;;;;;;;5.16;100.00;100274.76;1624783;87;21080;-60
2022/01/10 08:14:09;;;;;;;42.60;17.60;;;;;;;5.14;100.00;100280.78;1624623;88;21576;-59
2022/01/10 08:16:36;;;;;;;48.45;18.55;;;;;;;5.14;100.00;100279.52;1624219;88;21104;-60
2022/01/10 08:19:03;;;;;;;46.02;19.92;;;;;;;5.20;100.00;100280.19;1604833;88;21044;-59
2022/01/10 08:21:30;;;;;;;52.10;23.12;;;;;;;5.25;100.00;100282.64;1624208;88;21130;-59
2022/01/10 08:23:57;;;;;;;44.77;18.75;;;;;;;5.33;100.00;100282.42;1624638;87;21138;-60
2022/01/10 08:26:24;;;;;;;45.33;18.52;;;;;;;5.35;100.00;100279.39;1624614;88;21528;-60
2022/01/10 08:28:52;;;;;;;45.23;19.90;;;;;;;5.37;100.00;100284.87;1624478;88;21040;-60
2022/01/10 08:31:21;;;;;;;40.10;16.97;;;;;;;5.40;100.00;100275.02;1624774;87;21048;-60
2022/01/10 08:33:49;;;;;;;42.73;17.75;;;;;;;5.35;100.00;100275.14;1624435;88;21507;-60
2022/01/10 08:36:15;;;;;;;43.33;17.55;;;;;;;5.38;100.00;100278.05;1624162;88;21575;-60
2022/01/10 08:38:42;;;;;;;47.40;17.62;;;;;;;5.44;100.00;100279.60;1624873;88;21071;-60
2022/01/10 08:41:10;;;;;;;42.80;16.97;;;;;;;5.45;100.00;100282.09;1624667;87;21064;-59
2022/01/10 08:43:37;;;;;;;44.38;18.02;;;;;;;5.46;100.00;100279.12;1623990;88;21544;-60
2022/01/10 08:46:04;;;;;;;44.42;18.40;;;;;;;5.58;100.00;100283.90;1627516;88;21000;-60
2022/01/10 08:48:32;;;;;;;42.88;17.98;;;;;;;5.65;100.00;100280.73;1623927;88;21127;-59
2022/01/10 08:50:59;;;;;;;45.28;17.85;;;;;;;5.65;100.00;100275.17;1626117;87;21587;-60
2022/01/10 08:53:26;;;;;;;40.65;16.40;;;;;;;5.76;100.00;100269.34;1624153;87;21071;-59
2022/01/10 08:55:54;;;;;;;42.27;17.80;;;;;;;5.94;100.00;100265.44;1624430;88;21086;-60
2022/01/10 08:58:21;;;;;;;42.78;17.17;;;;;;;6.03;100.00;100265.62;1624211;87;21064;-60
2022/01/10 09:00:49;;;;;;;40.12;16.93;;;;;;;6.14;100.00;100271.28;1624480;88;21028;-59
2022/01/10 09:03:16;;;;;;;41.02;16.57;;;;;;;6.32;100.00;100276.25;1623924;88;21076;-58
2022/01/10 09:05:43;;;;;;;40.90;16.90;;;;;;;6.40;100.00;100278.58;1622878;88;21098;-59
2022/01/10 09:08:11;;;;;;;41.77;16.93;;;;;;;6.40;100.00;100276.03;1624219;88;21421;-59
2022/01/10 09:10:37;;;;;;;48.63;19.02;;;;;;;6.36;100.00;100285.50;1624262;88;21605;-59
2022/01/10 09:13:06;;;;;;;44.88;19.65;;;;;;;6.36;100.00;100282.12;1624537;88;21100;-59
2022/01/10 09:15:37;;;;;;;44.30;17.30;;;;;;;6.42;100.00;100283.20;1627432;87;21028;-59
2022/01/10 09:18:04;;;;;;;41.23;16.93;;;;;;;6.50;100.00;100284.26;1630337;87;21539;-60
2022/01/10 09:20:32;;;;;;;43.20;16.52;;;;;;;6.57;100.00;100284.03;1627322;87;21087;-59
2022/01/10 09:22:59;;;;;;;45.85;17.37;;;;;;;6.50;100.00;100281.25;1632840;87;21076;-59
2022/01/10 09:25:27;;;;;;;42.43;16.35;;;;;;;6.38;100.00;100274.78;1624903;87;21588;-59
2022/01/10 09:27:56;;;;;;;45.63;16.45;;;;;;;6.34;100.00;100276.21;1626977;87;21064;-59
2022/01/10 09:30:23;;;;;;;40.70;16.32;;;;;;;6.29;100.00;100267.86;1624212;88;21100;-60
2022/01/10 09:32:55;;;;;;;41.20;16.82;;;;;;;6.36;100.00;100263.77;1624626;88;21595;-59
2022/01/10 09:35:24;;;;;;;43.73;16.17;;;;;;;6.32;100.00;100257.08;1624850;87;21075;-59
2022/01/10 09:37:51;;;;;;;39.58;16.97;;;;;;;6.15;100.00;100255.05;1624510;88;21095;-59
2022/01/10 09:40:18;;;;;;;43.63;16.73;;;;;;;6.26;100.00;100257.72;1624628;88;20996;-60
2022/01/10 09:42:46;;;;;;;37.58;15.85;;;;;;;6.37;100.00;100264.63;1624582;88;21091;-59
2022/01/10 09:45:13;;;;;;;38.95;16.07;;;;;;;6.39;100.00;100259.86;1624642;88;21060;-60
2022/01/10 09:47:40;;;;;;;41.77;17.42;;;;;;;6.35;100.00;100265.95;1641239;86;21614;-59
2022/01/10 09:50:10;;;;;;;40.85;17.45;;;;;;;6.25;100.00;100264.56;1629831;87;21088;-59
2022/01/10 09:52:40;;;;;;;35.05;15.10;;;;;;;6.22;100.00;100264.63;1624511;87;21119;-60
2022/01/10 09:55:08;;;;;;;35.30;15.58;;;;;;;6.13;100.00;100272.59;1624507;88;21031;-59
2022/01/10 09:57:35;;;;;;;34.98;15.40;;;;;;;6.06;100.00;100265.97;1604684;88;21481;-59
2022/01/10 10:00:06;;;;;;;32.83;15.05;;;;;;;6.04;100.00;100271.13;1624677;88;21071;-59
2022/01/10 10:02:37;;;;;;;37.08;17.17;;;;;;;5.97;100.00;100265.81;1624079;87;21036;-58
2022/01/10 10:05:08;;;;;;;33.98;15.68;;;;;;;5.91;100.00;100270.62;1624621;88;21028;-59
2022/01/10 10:07:38;;;;;;;33.73;16.35;;;;;;;5.97;100.00;100272.20;1624569;88;21080;-58
2022/01/10 10:10:11;;;;;;;36.85;15.58;;;;;;;6.01;100.00;100276.34;1624407;88;21067;-58
2022/01/10 10:12:44;;;;;;;36.03;15.80;;;;;;;5.97;100.00;100273.02;1633591;87;21047;-58
2022/01/10 10:15:12;;;;;;;34.70;16.75;;;;;;;5.79;100.00;100269.24;1605080;88;21092;-58
2022/01/10 10:17:40;;;;;;;41.28;16.45;;;;;;;5.90;100.00;100265.55;1624474;87;21012;-58
2022/01/10 10:20:15;;;;;;;36.10;17.23;;;;;;;5.98;100.00;100263.63;1624457;87;21111;-60
2022/01/10 10:22:45;;;;;;;32.45;15.53;;;;;;;6.13;100.00;100265.75;1624839;88;21530;-58
2022/01/10 10:25:13;;;;;;;32.73;15.48;;;;;;;6.26;100.00;100258.55;1624605;88;21067;-58
2022/01/10 10:27:44;;;;;;;31.65;14.65;;;;;;;6.37;100.00;100261.63;1624786;86;21155;-58
2022/01/10 10:30:17;;;;;;;35.40;15.40;;;;;;;6.55;100.00;100260.64;1624605;87;21052;-59
2022/01/10 10:32:44;;;;;;;32.88;15.90;;;;;;;6.57;100.00;100261.01;1624884;87;21064;-59
2022/01/10 10:35:12;;;;;;;36.45;18.12;;;;;;;6.65;100.00;100266.31;1624290;88;21587;-59
2022/01/10 10:37:43;;;;;;;32.40;15.88;;;;;;;6.76;100.00;100264.26;1624382;88;21095;-59
2022/01/10 10:40:14;;;;;;;32.45;16.80;;;;;;;6.85;100.00;100258.83;1624302;88;21580;-59
2022/01/10 10:42:44;;;;;;;31.52;15.45;;;;;;;6.95;100.00;100260.20;1625103;87;21059;-60
2022/01/10 10:45:13;;;;;;;38.20;16.77;;;;;;;6.84;100.00;100261.45;1605209;88;21076;-58
2022/01/10 10:47:44;;;;;;;33.20;16.12;;;;;;;6.73;100.00;100263.06;1625177;87;21552;-58
2022/01/10 10:50:11;;;;;;;36.55;18.12;;;;;;;6.74;100.00;100258.36;1624629;87;21052;-58
2022/01/10 10:52:41;;;;;;;36.58;18.27;;;;;;;6.72;100.00;100265.24;1625746;86;21124;-58
2022/01/10 10:55:14;;;;;;;35.68;18.40;;;;;;;6.57;100.00;100269.13;1624650;87;21083;-58
2022/01/10 10:57:48;;;;;;;44.70;21.40;;;;;;;6.46;100.00;100275.01;1625277;87;21075;-59
2022/01/10 11:00:15;;;;;;;53.15;23.52;;;;;;;6.48;100.00;100282.19;1624689;87;21349;-59
2022/01/10 11:02:44;;;;;;;49.93;22.82;;;;;;;6.43;100.00;100279.78;1624669;88;21087;-59
2022/01/10 11:05:12;;;;;;;51.33;23.92;;;;;;;6.36;100.00;100276.55;1604964;87;21087;-59
2022/01/10 11:07:39;;;;;;;54.08;23.47;;;;;;;6.33;100.00;100282.23;1624527;88;21564;-60
2022/01/10 11:10:07;;;;;;;70.87;30.72;;;;;;;6.28;100.00;100287.45;1624306;88;21520;-59
2022/01/10 11:12:38;;;;;;;61.58;27.45;;;;;;;6.23;100.00;100284.66;1625177;87;21531;-59
2022/01/10 11:15:06;;;;;;;67.87;27.80;;;;;;;6.25;100.00;100283.73;1624660;88;21083;-59
2022/01/10 11:17:33;;;;;;;61.75;27.67;;;;;;;6.25;100.00;100280.34;1624671;86;21048;-59
2022/01/10 11:20:21;;;;;;;66.20;28.90;;;;;;;6.22;100.00;100286.36;1627111;87;21559;-59
2022/01/10 11:22:52;;;;;;;68.25;29.63;;;;;;;6.19;100.00;100294.13;1624762;87;21051;-59
2022/01/10 11:25:31;;;;;;;77.45;33.20;;;;;;;6.15;100.00;100298.49;1624889;86;21040;-59
2022/01/10 11:28:24;;;;;;;74.70;33.75;;;;;;;6.12;100.00;100299.02;1624392;88;21055;-58
2022/01/10 11:30:54;;;;;;;74.40;33.28;;;;;;;6.05;100.00;100306.03;1624658;88;21064;-59
2022/01/10 11:33:26;;;;;;;154.55;53.95;;;;;;;6.06;100.00;100299.19;1610767;88;21614;-59